Terminal Aerodrome Forecast
Issued by NWS

Home | Current Version | Previous Version | Text Only | Print | Product List | Glossary On
Versions: 1 2 3 4 5 6 7 8 9 10 11 12 13 14 15 16 17 18 19 20
000
FTUS45 KRIW 231100
TAFCPR
TAF
KCPR 231123Z 2312/2412 VRB03KT 3/4SM BR OVC003
     FM231600 VRB05KT P6SM SCT040 BKN080
     FM232000 08009KT P6SM VCTS SCT040CB BKN080
     FM240200 09011KT 5SM -SHRA BR SCT008 OVC020
     FM240800 05010KT 5SM -SHRA OVC008=

USA.gov is the U.S. government's official web portal to all federal, state and local government web resources and services.